Time;durP1;ratioP1;P1;durP2;ratioP2;P2;SDS_P1;SDS_P2;PMS_P1;PMS_P2;Temp;Humidity;BMP_temperature;BMP_pressure;BME280_temperature;BME280_humidity;BME280_pressure;Samples;Min_cycle;Max_cycle;Signal;HPM_P1;HPM_P2
2022/07/09 00:00:44;;;;;;;14.35;8.90;;;21.80;79.40;;;;;;5059894;28;20155;-78
2022/07/09 00:03:10;;;;;;;18.95;8.65;;;21.80;79.20;;;;;;5062562;28;20037;-80
2022/07/09 00:05:36;;;;;;;17.27;8.23;;;21.70;78.80;;;;;;5064131;28;20059;-80
2022/07/09 00:08:02;;;;;;;16.75;8.00;;;21.70;79.40;;;;;;5063125;28;20495;-80
2022/07/09 00:10:28;;;;;;;16.02;8.65;;;21.60;80.50;;;;;;5065442;28;20071;-80
2022/07/09 00:12:54;;;;;;;15.20;7.95;;;21.50;80.50;;;;;;5061770;28;20122;-80
2022/07/09 00:15:20;;;;;;;12.50;8.10;;;21.60;80.40;;;;;;5062414;28;20024;-80
2022/07/09 00:17:45;;;;;;;17.90;8.55;;;21.60;80.30;;;;;;5078471;28;20066;-79
2022/07/09 00:20:11;;;;;;;17.48;8.45;;;21.60;79.80;;;;;;5060824;28;20434;-79
2022/07/09 00:22:37;;;;;;;14.43;8.18;;;21.70;79.20;;;;;;5061110;28;20035;-80
2022/07/09 00:25:04;;;;;;;16.73;8.23;;;21.70;79.80;;;;;;5061715;28;20036;-80
2022/07/09 00:27:30;;;;;;;20.60;9.18;;;21.70;79.70;;;;;;5062585;28;20043;-81
2022/07/09 00:29:55;;;;;;;17.08;8.48;;;21.70;79.20;;;;;;5064196;28;20487;-81
2022/07/09 00:32:21;;;;;;;15.13;8.02;;;21.70;79.30;;;;;;5067540;28;20054;-82
2022/07/09 00:34:47;;;;;;;11.93;7.28;;;21.60;80.50;;;;;;5063889;28;20375;-81
2022/07/09 00:37:13;;;;;;;13.18;6.88;;;21.50;81.20;;;;;;5064237;28;20021;-81
2022/07/09 00:39:39;;;;;;;10.75;7.07;;;21.50;81.40;;;;;;5068741;28;20029;-82
2022/07/09 00:42:10;;;;;;;11.20;6.85;;;21.50;81.30;;;;;;5045896;28;20109;-80
2022/07/09 00:44:36;;;;;;;10.68;7.00;;;21.50;81.20;;;;;;5064712;28;20040;-82
2022/07/09 00:47:04;;;;;;;18.00;8.20;;;21.40;82.00;;;;;;5064234;28;20403;-81
2022/07/09 00:49:34;;;;;;;10.50;7.25;;;21.30;81.50;;;;;;5080820;28;20038;-82
2022/07/09 00:52:00;;;;;;;11.05;6.95;;;21.20;82.20;;;;;;5081086;28;20040;-82
2022/07/09 00:54:26;;;;;;;15.52;7.88;;;21.20;82.90;;;;;;5061082;28;20090;-81
2022/07/09 00:56:53;;;;;;;16.55;9.45;;;21.20;82.40;;;;;;5063312;28;20511;-82
2022/07/09 00:59:21;;;;;;;16.55;8.15;;;21.30;81.40;;;;;;5062582;28;20052;-81
2022/07/09 01:01:49;;;;;;;16.48;9.82;;;21.40;81.00;;;;;;5061696;28;20033;-81
2022/07/09 01:04:15;;;;;;;15.20;9.00;;;21.40;80.10;;;;;;5068712;28;20123;-82
2022/07/09 01:06:41;;;;;;;14.82;9.48;;;21.40;79.70;;;;;;5049717;28;20832;-82
2022/07/09 01:09:07;;;;;;;16.33;9.23;;;21.40;79.50;;;;;;5063309;28;20041;-81
2022/07/09 01:11:33;;;;;;;15.70;9.07;;;21.40;79.20;;;;;;5064243;28;20029;-81
2022/07/09 01:14:00;;;;;;;19.15;9.48;;;21.40;79.00;;;;;;5078473;28;20395;-82
2022/07/09 01:16:39;;;;;;;18.80;9.48;;;21.50;78.70;;;;;;5063778;28;20021;-83
2022/07/09 01:19:06;;;;;;;14.50;8.38;;;21.40;79.10;;;;;;5066403;28;20045;-82
2022/07/09 01:21:32;;;;;;;13.43;8.18;;;21.50;79.80;;;;;;5064425;28;20097;-82
2022/07/09 01:23:58;;;;;;;14.57;8.73;;;21.50;80.30;;;;;;5064836;28;20524;-82
2022/07/09 01:26:24;;;;;;;15.77;9.85;;;21.50;80.20;;;;;;5061927;28;20041;-80
2022/07/09 01:28:51;;;;;;;15.52;9.23;;;21.50;79.70;;;;;;5062849;28;20070;-83
2022/07/09 01:31:17;;;;;;;14.23;9.13;;;21.50;79.60;;;;;;5066227;28;20043;-82
2022/07/09 01:33:44;;;;;;;14.50;8.35;;;21.50;79.70;;;;;;5063468;28;20712;-82
2022/07/09 01:36:10;;;;;;;24.52;10.93;;;21.50;80.40;;;;;;5063998;28;20123;-82
2022/07/09 01:38:36;;;;;;;14.23;9.13;;;21.50;79.70;;;;;;5078720;28;20033;-83
2022/07/09 01:41:03;;;;;;;19.25;9.65;;;21.60;79.70;;;;;;5049241;28;20143;-82
2022/07/09 01:43:30;;;;;;;21.45;10.07;;;21.60;79.40;;;;;;5063299;28;20056;-83
2022/07/09 01:45:57;;;;;;;19.30;10.10;;;21.50;80.00;;;;;;5063501;28;20498;-83
2022/07/09 01:48:23;;;;;;;21.63;9.45;;;21.50;79.90;;;;;;5062034;28;20036;-84
2022/07/09 01:50:49;;;;;;;16.23;10.02;;;21.40;79.60;;;;;;5066828;28;20035;-84
2022/07/09 01:53:15;;;;;;;16.15;10.07;;;21.40;80.00;;;;;;5065267;28;20032;-84
2022/07/09 01:55:40;;;;;;;14.90;9.68;;;21.40;78.60;;;;;;5062566;28;20062;-83
2022/07/09 01:58:07;;;;;;;15.75;9.50;;;21.50;78.50;;;;;;5078123;28;20029;-83
2022/07/09 02:00:33;;;;;;;17.98;9.63;;;21.50;78.20;;;;;;5048826;28;20043;-83
2022/07/09 02:02:59;;;;;;;14.05;9.38;;;21.50;77.50;;;;;;5063619;28;20419;-81
2022/07/09 02:05:25;;;;;;;12.43;9.23;;;21.50;77.20;;;;;;5079098;28;20037;-80
2022/07/09 02:07:50;;;;;;;9.98;8.75;;;21.50;77.00;;;;;;5086274;28;20036;-82
2022/07/09 02:10:16;;;;;;;14.02;7.90;;;21.50;76.90;;;;;;5066788;28;20025;-81
2022/07/09 02:12:42;;;;;;;12.35;8.77;;;21.60;77.50;;;;;;5062566;28;20033;-81
2022/07/09 02:15:10;;;;;;;11.85;8.52;;;21.60;76.90;;;;;;5079483;28;20110;-81
2022/07/09 02:17:36;;;;;;;14.43;8.90;;;21.60;76.60;;;;;;5062395;28;20383;-81
2022/07/09 02:20:03;;;;;;;10.98;8.82;;;21.60;76.60;;;;;;5064619;28;20048;-80
2022/07/09 02:22:29;;;;;;;12.43;9.25;;;21.60;76.60;;;;;;5066702;28;20039;-80
2022/07/09 02:24:55;;;;;;;10.98;8.23;;;21.70;76.70;;;;;;5048649;28;20375;-79
2022/07/09 02:27:21;;;;;;;12.60;8.65;;;21.80;76.80;;;;;;5061596;28;20041;-77
2022/07/09 02:29:47;;;;;;;14.15;9.75;;;21.90;76.40;;;;;;5061885;28;20068;-78
2022/07/09 02:32:13;;;;;;;13.15;9.05;;;22.00;75.70;;;;;;5061956;28;20044;-78
2022/07/09 02:34:39;;;;;;;16.27;8.35;;;22.10;75.80;;;;;;5063137;28;20032;-80
2022/07/09 02:37:05;;;;;;;12.45;8.20;;;22.20;76.40;;;;;;5060314;28;20044;-81
2022/07/09 02:39:31;;;;;;;14.98;9.60;;;22.20;76.30;;;;;;5061914;28;20621;-81
2022/07/09 02:41:57;;;;;;;16.60;9.55;;;22.30;75.70;;;;;;5065691;28;20439;-82
2022/07/09 02:44:23;;;;;;;14.27;8.88;;;22.30;75.30;;;;;;5059853;28;20134;-80
2022/07/09 02:46:49;;;;;;;15.88;9.48;;;22.40;75.10;;;;;;5061241;28;20075;-81
2022/07/09 02:49:15;;;;;;;15.80;9.27;;;22.50;74.90;;;;;;5062546;28;20068;-80
2022/07/09 02:51:42;;;;;;;14.98;9.40;;;22.60;74.60;;;;;;5062748;28;20367;-81
2022/07/09 02:54:07;;;;;;;13.82;9.27;;;22.70;74.50;;;;;;5063038;28;20039;-80
2022/07/09 02:56:34;;;;;;;15.02;8.73;;;22.80;74.00;;;;;;5059656;28;20032;-82
2022/07/09 02:59:00;;;;;;;13.82;9.43;;;22.90;73.20;;;;;;5064248;28;20055;-82
2022/07/09 03:01:26;;;;;;;13.95;9.20;;;23.00;73.00;;;;;;5060121;28;20491;-83
2022/07/09 03:03:52;;;;;;;14.30;9.05;;;23.00;73.00;;;;;;5064718;28;20036;-81
2022/07/09 03:06:18;;;;;;;14.90;8.70;;;23.00;72.80;;;;;;5061278;28;20079;-81
2022/07/09 03:08:44;;;;;;;14.45;8.55;;;23.00;72.60;;;;;;5047456;28;20041;-81
2022/07/09 03:11:10;;;;;;;11.70;7.75;;;23.00;72.50;;;;;;5061181;28;20039;-81
2022/07/09 03:13:36;;;;;;;10.77;7.68;;;22.90;72.40;;;;;;5064978;28;20024;-80
2022/07/09 03:16:03;;;;;;;11.10;8.00;;;22.90;72.40;;;;;;5062120;28;20033;-81
2022/07/09 03:18:29;;;;;;;7.53;6.82;;;22.80;72.40;;;;;;5060860;28;20039;-81
2022/07/09 03:20:55;;;;;;;11.07;6.88;;;22.70;72.30;;;;;;5064292;28;20599;-80
2022/07/09 03:23:22;;;;;;;8.55;7.15;;;22.70;72.10;;;;;;5061797;28;20053;-80
2022/07/09 03:25:48;;;;;;;8.57;6.90;;;22.60;72.00;;;;;;5060674;28;20091;-81
2022/07/09 03:28:14;;;;;;;11.20;7.50;;;22.60;72.00;;;;;;5060037;28;20475;-81
2022/07/09 03:30:40;;;;;;;10.02;7.05;;;22.50;72.20;;;;;;5064530;28;20811;-80
2022/07/09 03:33:06;;;;;;;9.85;6.90;;;22.50;72.40;;;;;;5061064;28;20171;-81
2022/07/09 03:35:32;;;;;;;7.53;6.63;;;22.50;72.30;;;;;;5048961;28;20052;-80
2022/07/09 03:37:58;;;;;;;7.88;6.00;;;22.50;72.20;;;;;;5061469;28;20497;-78
2022/07/09 03:40:24;;;;;;;8.60;5.88;;;22.50;72.80;;;;;;5060636;28;20037;-79
2022/07/09 03:42:50;;;;;;;7.82;5.93;;;22.60;73.10;;;;;;5060741;28;20041;-79
2022/07/09 03:45:16;;;;;;;7.68;6.07;;;22.50;73.70;;;;;;5076003;28;20044;-79
2022/07/09 03:47:42;;;;;;;8.23;6.13;;;22.50;71.80;;;;;;5060255;28;20037;-78
2022/07/09 03:50:09;;;;;;;9.35;6.28;;;22.50;71.60;;;;;;5062760;28;20399;-79
2022/07/09 03:52:34;;;;;;;8.02;5.45;;;22.50;72.00;;;;;;5060259;28;20430;-80
2022/07/09 03:55:00;;;;;;;8.27;4.47;;;22.50;71.70;;;;;;5059482;28;20040;-77
2022/07/09 03:57:26;;;;;;;5.95;4.95;;;22.40;71.60;;;;;;5064707;28;20036;-78
2022/07/09 03:59:52;;;;;;;7.38;5.65;;;22.40;72.10;;;;;;5064659;28;20041;-79
2022/07/09 04:02:18;;;;;;;7.10;5.40;;;22.40;72.40;;;;;;5077436;28;20032;-79
2022/07/09 04:04:44;;;;;;;8.70;4.80;;;22.30;72.10;;;;;;5064057;28;20036;-78
2022/07/09 04:07:10;;;;;;;8.10;5.22;;;22.30;71.80;;;;;;5066759;28;20036;-79
2022/07/09 04:09:36;;;;;;;8.02;5.57;;;22.30;72.40;;;;;;5067135;28;20037;-79
2022/07/09 04:12:02;;;;;;;9.13;6.47;;;22.20;73.20;;;;;;5065078;28;20037;-79
2022/07/09 04:14:28;;;;;;;14.40;6.88;;;22.20;73.40;;;;;;5063387;28;20044;-80
2022/07/09 04:16:54;;;;;;;13.70;7.38;;;22.30;73.70;;;;;;5045393;28;20033;-81
2022/07/09 04:19:20;;;;;;;8.65;7.20;;;22.30;74.10;;;;;;5063980;28;20157;-80
2022/07/09 04:21:46;;;;;;;9.93;7.32;;;22.30;74.10;;;;;;5065085;28;20056;-80
2022/07/09 04:24:15;;;;;;;7.88;6.95;;;22.30;74.70;;;;;;5064948;28;20383;-81
2022/07/09 04:26:42;;;;;;;9.38;6.97;;;22.40;74.70;;;;;;5066641;28;20043;-79
2022/07/09 04:29:08;;;;;;;8.73;7.30;;;22.40;74.80;;;;;;5050837;28;20039;-79
2022/07/09 04:31:34;;;;;;;8.07;6.68;;;22.30;74.90;;;;;;5063979;28;20028;-79
2022/07/09 04:34:01;;;;;;;8.48;6.85;;;22.40;74.70;;;;;;5063495;28;20090;-77
2022/07/09 04:36:27;;;;;;;9.07;6.30;;;22.40;74.50;;;;;;5082905;28;20033;-78
2022/07/09 04:38:55;;;;;;;9.02;5.78;;;22.30;74.30;;;;;;5065125;28;20131;-78
2022/07/09 04:41:20;;;;;;;12.50;6.13;;;22.30;74.30;;;;;;5067088;28;20036;-77
2022/07/09 04:43:46;;;;;;;6.18;5.57;;;22.50;74.50;;;;;;5066849;28;20525;-79
2022/07/09 04:46:13;;;;;;;5.95;5.28;;;22.70;74.30;;;;;;5063991;28;20029;-78
2022/07/09 04:48:39;;;;;;;7.25;5.30;;;23.10;74.20;;;;;;5050025;28;20037;-77
2022/07/09 04:51:05;;;;;;;7.40;5.78;;;23.20;72.20;;;;;;5078752;28;20613;-79
2022/07/09 04:53:31;;;;;;;8.35;6.13;;;23.20;71.50;;;;;;5063473;28;20044;-78
2022/07/09 04:55:57;;;;;;;6.68;5.10;;;23.10;71.70;;;;;;5062849;28;20029;-80
2022/07/09 04:58:23;;;;;;;7.03;5.40;;;23.00;71.60;;;;;;5063020;28;20037;-78
2022/07/09 05:00:49;;;;;;;9.68;5.82;;;23.00;71.70;;;;;;5080510;28;20044;-79
2022/07/09 05:03:15;;;;;;;10.45;9.35;;;23.10;72.90;;;;;;5063166;28;20103;-80
2022/07/09 05:05:41;;;;;;;13.55;10.90;;;23.20;72.40;;;;;;5066803;28;20132;-80
2022/07/09 05:08:07;;;;;;;11.30;10.10;;;23.30;71.80;;;;;;5079748;28;20028;-81
2022/07/09 05:10:34;;;;;;;10.27;7.93;;;23.50;71.90;;;;;;5062137;28;20177;-81
2022/07/09 05:13:01;;;;;;;7.88;6.40;;;23.70;71.90;;;;;;5062815;28;20491;-78
2022/07/09 05:15:27;;;;;;;7.65;5.68;;;24.00;71.50;;;;;;5065759;28;20040;-80
2022/07/09 05:17:53;;;;;;;5.60;5.00;;;24.20;71.00;;;;;;5061867;28;20068;-79
2022/07/09 05:20:19;;;;;;;7.15;4.90;;;24.50;70.70;;;;;;5050866;28;20068;-80
2022/07/09 05:22:45;;;;;;;4.22;3.75;;;24.70;69.40;;;;;;5065708;28;20032;-80
2022/07/09 05:25:11;;;;;;;4.25;3.70;;;24.90;68.90;;;;;;5064189;28;20495;-82
2022/07/09 05:27:44;;;;;;;4.95;3.88;;;25.00;67.80;;;;;;5064757;28;20033;-82
2022/07/09 05:30:14;;;;;;;3.60;3.28;;;25.20;67.80;;;;;;5062753;28;20068;-82
2022/07/09 05:32:40;;;;;;;5.20;3.78;;;25.40;66.90;;;;;;5065731;28;20032;-81
2022/07/09 05:35:06;;;;;;;5.88;4.03;;;25.60;66.60;;;;;;5065516;28;20033;-81
2022/07/09 05:37:32;;;;;;;5.40;3.83;;;25.70;65.90;;;;;;5066810;28;20499;-81
2022/07/09 05:39:58;;;;;;;5.88;3.25;;;25.90;65.60;;;;;;5061882;28;20052;-81
2022/07/09 05:42:24;;;;;;;4.88;3.40;;;25.90;64.80;;;;;;5048416;28;20687;-82
2022/07/09 05:44:50;;;;;;;4.50;2.83;;;25.80;66.10;;;;;;5047846;28;20055;-81
2022/07/09 05:47:16;;;;;;;6.38;3.22;;;25.70;65.30;;;;;;5064046;28;20630;-81
2022/07/09 05:49:42;;;;;;;4.78;2.70;;;25.60;64.70;;;;;;5061807;28;20040;-80
2022/07/09 05:52:08;;;;;;;6.20;3.17;;;25.60;64.90;;;;;;5062653;28;20548;-82
2022/07/09 05:54:34;;;;;;;5.32;3.38;;;25.50;65.30;;;;;;5061433;28;20118;-81
2022/07/09 05:57:00;;;;;;;3.55;3.25;;;25.40;65.90;;;;;;5044428;28;20524;-79
2022/07/09 05:59:26;;;;;;;3.33;3.00;;;25.30;66.30;;;;;;5060528;28;20066;-82
2022/07/09 06:01:51;;;;;;;7.32;3.90;;;25.10;66.80;;;;;;5061505;28;20036;-81
2022/07/09 06:04:17;;;;;;;3.30;3.00;;;25.10;68.10;;;;;;5063884;28;20016;-80
2022/07/09 06:06:43;;;;;;;3.33;2.53;;;25.00;66.90;;;;;;5061445;28;20472;-80
2022/07/09 06:09:09;;;;;;;3.33;2.97;;;24.90;65.20;;;;;;5060462;28;20131;-81
2022/07/09 06:11:35;;;;;;;4.80;3.60;;;24.80;65.10;;;;;;5063285;28;20044;-79
2022/07/09 06:14:01;;;;;;;5.45;3.13;;;24.70;65.20;;;;;;5060765;28;20410;-79
2022/07/09 06:16:27;;;;;;;3.53;2.70;;;24.80;65.90;;;;;;5060963;28;20035;-80
2022/07/09 06:18:53;;;;;;;3.72;2.80;;;25.10;66.20;;;;;;5060713;28;20040;-80
2022/07/09 06:21:19;;;;;;;4.22;2.72;;;25.40;66.00;;;;;;5063355;28;20238;-79
2022/07/09 06:23:45;;;;;;;4.28;2.65;;;25.70;64.90;;;;;;5061060;28;20120;-79
2022/07/09 06:26:11;;;;;;;4.53;3.05;;;25.80;63.20;;;;;;5048569;28;20032;-80
2022/07/09 06:28:38;;;;;;;8.40;3.20;;;26.00;63.30;;;;;;5048303;28;20028;-81
2022/07/09 06:31:04;;;;;;;4.95;2.80;;;25.90;62.70;;;;;;5064122;28;20510;-80
2022/07/09 06:33:30;;;;;;;5.57;2.90;;;25.90;64.20;;;;;;5062570;28;20032;-82
2022/07/09 06:35:56;;;;;;;4.55;3.08;;;26.00;63.20;;;;;;5063518;28;20394;-80
2022/07/09 06:38:22;;;;;;;3.22;2.60;;;25.80;61.40;;;;;;5062250;28;20048;-79
2022/07/09 06:40:48;;;;;;;6.50;2.83;;;25.90;62.00;;;;;;5063111;28;20020;-80
2022/07/09 06:43:14;;;;;;;6.28;2.60;;;26.00;63.80;;;;;;5062561;28;20106;-82
2022/07/09 06:45:45;;;;;;;3.50;2.70;;;26.10;62.80;;;;;;5047030;28;20078;-82
2022/07/09 06:48:11;;;;;;;4.85;3.35;;;26.10;63.10;;;;;;5058843;28;20134;-78
2022/07/09 06:50:37;;;;;;;6.00;3.38;;;25.90;61.80;;;;;;5065547;28;20051;-78
2022/07/09 06:53:04;;;;;;;5.15;3.03;;;25.60;62.50;;;;;;5058886;28;20503;-79
2022/07/09 06:55:30;;;;;;;4.22;3.50;;;25.50;63.40;;;;;;5060288;28;20028;-78
2022/07/09 06:57:57;;;;;;;5.10;3.50;;;25.40;64.10;;;;;;5059613;28;20685;-79
2022/07/09 07:00:23;;;;;;;4.18;3.28;;;25.20;64.20;;;;;;5046878;28;20163;-78
2022/07/09 07:02:50;;;;;;;3.67;3.15;;;25.20;64.90;;;;;;5060018;28;20037;-77
2022/07/09 07:05:16;;;;;;;3.65;2.70;;;25.20;64.70;;;;;;5059778;28;20028;-77
2022/07/09 07:07:42;;;;;;;4.47;2.90;;;25.00;63.40;;;;;;5060717;28;20466;-76
2022/07/09 07:10:08;;;;;;;4.00;2.78;;;25.00;63.60;;;;;;5060527;28;20035;-75
2022/07/09 07:12:34;;;;;;;4.53;2.70;;;25.00;63.00;;;;;;5059953;28;20032;-78
2022/07/09 07:15:00;;;;;;;2.90;2.70;;;25.10;64.40;;;;;;5063699;28;20082;-74
2022/07/09 07:17:26;;;;;;;2.45;2.25;;;25.30;65.60;;;;;;5058889;28;20118;-77
2022/07/09 07:19:52;;;;;;;6.05;3.08;;;25.30;65.30;;;;;;5062925;28;20033;-75
2022/07/09 07:22:18;;;;;;;4.03;2.70;;;25.40;64.20;;;;;;5061209;28;20028;-75
2022/07/09 07:24:44;;;;;;;7.20;2.40;;;25.40;63.90;;;;;;5061092;28;20029;-74
2022/07/09 07:27:10;;;;;;;2.60;2.22;;;25.50;62.90;;;;;;5058013;28;20029;-75
2022/07/09 07:29:36;;;;;;;3.13;2.28;;;25.40;62.10;;;;;;5076356;28;20028;-75
2022/07/09 07:32:02;;;;;;;2.30;2.10;;;25.30;62.20;;;;;;5063313;28;20044;-73
2022/07/09 07:34:28;;;;;;;3.03;2.40;;;25.30;62.60;;;;;;5077138;28;20555;-75
2022/07/09 07:36:54;;;;;;;2.50;2.30;;;25.20;62.80;;;;;;5063908;28;20479;-74
2022/07/09 07:39:21;;;;;;;3.40;2.40;;;25.10;63.30;;;;;;5067028;28;20037;-74
2022/07/09 07:41:48;;;;;;;5.90;4.10;;;25.10;63.80;;;;;;5063038;28;20024;-75
2022/07/09 07:44:14;;;;;;;4.90;3.20;;;25.00;63.70;;;;;;5066404;28;20131;-75
2022/07/09 07:46:39;;;;;;;3.63;2.63;;;25.00;64.10;;;;;;5064500;28;20161;-74
2022/07/09 07:49:05;;;;;;;3.53;3.10;;;25.00;64.00;;;;;;5067893;28;20502;-75
2022/07/09 07:51:31;;;;;;;2.83;2.55;;;24.90;64.20;;;;;;5062347;28;20049;-74
2022/07/09 07:53:57;;;;;;;2.40;2.20;;;24.90;64.60;;;;;;5064885;28;20119;-74
2022/07/09 07:56:23;;;;;;;4.75;2.80;;;24.90;64.80;;;;;;5064205;28;20029;-74
2022/07/09 07:58:49;;;;;;;3.28;2.38;;;24.90;64.80;;;;;;5064909;28;20029;-75
2022/07/09 08:01:15;;;;;;;3.50;2.25;;;24.90;65.20;;;;;;5065631;28;20039;-75
2022/07/09 08:03:41;;;;;;;4.32;2.45;;;24.90;65.70;;;;;;5064644;28;20538;-74
2022/07/09 08:06:07;;;;;;;6.68;2.67;;;24.80;65.50;;;;;;5064098;28;20162;-75
2022/07/09 08:08:34;;;;;;;3.10;2.80;;;24.80;66.10;;;;;;5063151;28;20064;-76
2022/07/09 08:11:00;;;;;;;3.38;2.75;;;24.90;65.80;;;;;;5066992;28;20044;-76
2022/07/09 08:13:28;;;;;;;3.20;2.80;;;24.90;66.20;;;;;;5080196;28;20051;-75
2022/07/09 08:15:54;;;;;;;3.95;2.72;;;24.80;66.60;;;;;;5065885;28;20037;-75
2022/07/09 08:18:20;;;;;;;3.38;2.70;;;24.80;66.60;;;;;;5062746;28;20856;-75
2022/07/09 08:20:49;;;;;;;4.47;2.67;;;24.80;67.10;;;;;;5066403;28;20048;-76
2022/07/09 08:23:15;;;;;;;3.83;2.83;;;24.70;67.60;;;;;;5060648;28;20206;-77
2022/07/09 08:25:40;;;;;;;4.03;2.55;;;24.80;68.10;;;;;;5063844;28;20163;-76
2022/07/09 08:28:06;;;;;;;3.38;2.67;;;24.80;67.00;;;;;;5080151;28;20032;-76
2022/07/09 08:30:32;;;;;;;2.45;2.25;;;24.80;67.40;;;;;;5067166;28;20033;-76
2022/07/09 08:32:58;;;;;;;2.53;2.33;;;24.80;67.40;;;;;;5065609;28;20114;-77
2022/07/09 08:35:25;;;;;;;3.72;2.35;;;24.80;67.40;;;;;;5063930;28;20044;-75
2022/07/09 08:37:52;;;;;;;4.10;2.47;;;24.90;67.10;;;;;;5065956;28;20095;-84
2022/07/09 08:40:19;;;;;;;5.75;3.20;;;24.80;67.80;;;;;;5034128;28;20051;-82
2022/07/09 08:42:49;;;;;;;4.28;3.20;;;24.80;68.20;;;;;;5055132;28;20036;-88
2022/07/09 08:45:17;;;;;;;4.50;3.13;;;24.70;68.90;;;;;;5072069;28;20064;-83
2022/07/09 08:47:43;;;;;;;4.30;3.90;;;24.70;69.10;;;;;;5066769;28;20502;-80
2022/07/09 08:50:10;;;;;;;5.55;3.60;;;24.70;69.30;;;;;;5078772;28;20037;-78
2022/07/09 08:52:38;;;;;;;4.53;3.25;;;24.70;70.40;;;;;;5066879;28;20116;-79
2022/07/09 08:55:06;;;;;;;7.90;3.40;;;24.70;71.40;;;;;;5064310;28;20526;-78
2022/07/09 08:57:32;;;;;;;6.70;3.20;;;24.80;70.20;;;;;;5064611;28;20514;-77
2022/07/09 08:59:57;;;;;;;4.30;2.60;;;24.90;68.80;;;;;;5064526;28;20037;-77
2022/07/09 09:02:23;;;;;;;3.08;2.33;;;24.90;67.80;;;;;;5048332;28;20036;-78
2022/07/09 09:04:49;;;;;;;6.03;3.17;;;25.00;66.40;;;;;;5063642;28;20482;-78
2022/07/09 09:07:17;;;;;;;6.60;2.85;;;25.00;66.40;;;;;;5062433;28;20356;-77
2022/07/09 09:09:44;;;;;;;4.35;2.90;;;24.90;66.30;;;;;;5060353;28;20650;-77
2022/07/09 09:12:11;;;;;;;4.50;3.50;;;24.90;66.90;;;;;;5062769;28;20063;-77
2022/07/09 09:14:38;;;;;;;4.97;3.55;;;24.90;66.60;;;;;;5060941;28;20040;-75
2022/07/09 09:17:14;;;;;;;6.93;3.47;;;24.90;67.20;;;;;;5064176;28;20040;-75
2022/07/09 09:19:40;;;;;;;8.68;4.65;;;24.90;67.60;;;;;;5062929;28;20032;-78
2022/07/09 09:22:07;;;;;;;7.20;5.65;;;24.90;68.00;;;;;;5049835;28;20043;-80
2022/07/09 09:24:34;;;;;;;11.00;6.65;;;24.90;68.60;;;;;;5065249;28;20570;-89
2022/07/09 09:27:04;;;;;;;9.27;6.68;;;24.80;69.20;;;;;;5067136;28;20138;-93
2022/07/09 09:29:30;;;;;;;8.50;7.57;;;24.80;70.00;;;;;;5063672;28;20040;-87
2022/07/09 09:31:56;;;;;;;10.18;6.95;;;24.70;69.80;;;;;;5067170;28;20067;-88
2022/07/09 09:34:23;;;;;;;13.68;7.30;;;24.70;70.00;;;;;;5061780;28;20166;-78
2022/07/09 09:36:55;;;;;;;9.88;7.25;;;24.70;70.60;;;;;;5077681;28;20039;-76
2022/07/09 09:39:26;;;;;;;10.75;6.28;;;24.70;70.20;;;;;;5064780;28;20044;-75
2022/07/09 09:42:00;;;;;;;11.05;6.22;;;24.70;70.60;;;;;;5061642;28;20040;-77
2022/07/09 09:44:31;;;;;;;10.52;6.70;;;24.70;70.80;;;;;;5061205;28;20181;-80
2022/07/09 09:46:57;;;;;;;12.18;7.43;;;24.70;71.20;;;;;;5065455;28;20491;-80
2022/07/09 09:49:24;;;;;;;10.02;6.60;;;24.60;71.40;;;;;;5082978;28;20039;-78
2022/07/09 09:51:58;;;;;;;15.40;6.38;;;24.50;71.70;;;;;;5048273;28;20032;-78
2022/07/09 09:54:24;;;;;;;9.55;6.90;;;24.50;71.80;;;;;;5062998;28;20039;-78
2022/07/09 09:56:50;;;;;;;10.57;6.93;;;24.50;70.90;;;;;;5047543;28;20120;-75
2022/07/09 09:59:17;;;;;;;19.42;7.53;;;24.50;70.80;;;;;;5061570;28;20139;-75
2022/07/09 10:01:44;;;;;;;10.60;6.90;;;24.50;70.90;;;;;;5047653;28;20399;-78
2022/07/09 10:04:13;;;;;;;11.23;6.82;;;24.40;71.00;;;;;;5064221;28;20024;-80
2022/07/09 10:06:40;;;;;;;13.13;7.45;;;24.40;70.90;;;;;;5066710;28;20032;-79
2022/07/09 10:09:07;;;;;;;12.55;6.75;;;24.40;71.40;;;;;;5063488;28;20040;-78
2022/07/09 10:11:47;;;;;;;15.40;7.88;;;24.20;71.60;;;;;;5059345;28;20029;-83
2022/07/09 10:14:36;;;;;;;13.48;7.40;;;24.20;72.20;;;;;;5047970;28;20036;-82
2022/07/09 10:17:14;;;;;;;20.60;8.52;;;24.20;73.40;;;;;;5061240;28;20135;-76
2022/07/09 10:19:52;;;;;;;11.55;8.15;;;24.10;73.80;;;;;;5094249;28;20474;-80
2022/07/09 10:24:46;;;;;;;13.35;7.05;;;24.10;74.00;;;;;;5048528;27;20407;-79
2022/07/09 10:27:13;;;;;;;10.15;6.78;;;24.20;74.10;;;;;;5020818;28;20060;-83
2022/07/09 10:29:56;;;;;;;13.55;7.35;;;24.20;73.60;;;;;;5017983;28;20099;-86
2022/07/09 10:32:29;;;;;;;13.98;6.68;;;24.20;74.40;;;;;;5020349;28;20479;-80
2022/07/09 10:35:02;;;;;;;10.02;6.75;;;24.20;74.40;;;;;;5027534;28;20025;-82
2022/07/09 10:37:38;;;;;;;9.00;7.03;;;24.20;74.20;;;;;;4990071;28;20033;-83
2022/07/09 10:40:14;;;;;;;;;;;24.20;74.00;;;;;;5006085;28;20531;-84
2022/07/09 10:42:45;;;;;;;10.70;7.10;;;24.10;74.00;;;;;;5016992;28;20417;-84
2022/07/09 10:45:28;;;;;;;12.07;7.00;;;24.10;75.00;;;;;;5017014;28;20026;-79
2022/07/09 10:47:59;;;;;;;8.65;7.00;;;24.00;74.70;;;;;;5017770;28;20535;-87
2022/07/09 10:50:27;;;;;;;8.40;6.82;;;24.10;74.80;;;;;;5019526;28;20566;-86
2022/07/09 10:52:54;;;;;;;8.50;7.45;;;24.10;74.90;;;;;;5005430;28;20500;-91
2022/07/09 10:55:26;;;;;;;11.02;7.00;;;24.10;75.00;;;;;;4989490;28;20025;-86
2022/07/09 10:58:29;;;;;;;8.77;7.53;;;24.20;75.00;;;;;;5097778;27;20109;-77
2022/07/09 11:00:56;;;;;;;9.50;7.32;;;24.30;75.50;;;;;;5063805;27;20127;-75
2022/07/09 11:03:29;;;;;;;10.52;6.55;;;24.40;74.20;;;;;;5083350;28;20033;-77
2022/07/09 11:05:56;;;;;;;11.50;7.55;;;24.40;74.60;;;;;;5081648;28;20029;-77
2022/07/09 11:08:22;;;;;;;11.23;7.22;;;24.50;74.70;;;;;;5065345;28;20056;-76
2022/07/09 11:10:50;;;;;;;12.05;7.40;;;24.40;74.30;;;;;;5094033;28;20478;-77
2022/07/09 11:13:23;;;;;;;9.32;6.30;;;24.40;74.80;;;;;;5082285;28;20522;-76
2022/07/09 11:15:52;;;;;;;9.63;6.90;;;24.50;74.80;;;;;;5048415;28;20037;-79
2022/07/09 11:18:18;;;;;;;11.63;6.50;;;24.60;74.20;;;;;;5081536;28;20056;-78
2022/07/09 11:20:46;;;;;;;10.70;6.82;;;24.50;73.30;;;;;;5064396;28;20138;-77
2022/07/09 11:23:13;;;;;;;11.65;7.25;;;24.40;73.20;;;;;;5080560;28;20036;-77
2022/07/09 11:25:40;;;;;;;13.60;7.80;;;24.40;73.60;;;;;;5080650;28;20150;-76
2022/07/09 11:28:27;;;;;;;11.05;8.27;;;24.40;74.30;;;;;;5083311;28;20040;-78
2022/07/09 11:31:04;;;;;;;11.68;7.15;;;24.40;74.60;;;;;;5090107;28;20425;-76
2022/07/09 11:36:18;;;;;;;;;;;24.40;73.40;;;;;;5098617;28;20068;-76
2022/07/09 11:38:52;;;;;;;4.97;4.45;;;24.50;71.70;;;;;;5057298;28;19954;-77
2022/07/09 11:41:19;;;;;;;4.63;4.10;;;24.40;68.70;;;;;;5081445;28;20474;-77
2022/07/09 11:43:51;;;;;;;5.57;4.20;;;24.30;68.70;;;;;;5081360;28;20146;-77
2022/07/09 11:46:21;;;;;;;6.63;3.58;;;24.30;69.00;;;;;;5080919;28;20040;-77
2022/07/09 11:48:54;;;;;;;4.07;3.67;;;24.40;68.90;;;;;;5077604;28;20047;-77
2022/07/09 11:51:39;;;;;;;3.80;3.40;;;24.40;67.40;;;;;;5080149;28;20101;-78
2022/07/09 11:54:10;;;;;;;3.75;3.38;;;24.50;66.70;;;;;;5082476;28;20040;-78
2022/07/09 11:56:47;;;;;;;3.88;3.35;;;24.40;67.00;;;;;;5080213;28;20568;-78
2022/07/09 11:59:13;;;;;;;7.15;4.38;;;24.50;66.80;;;;;;5081073;28;20414;-76
2022/07/09 12:01:40;;;;;;;4.75;3.47;;;24.50;67.00;;;;;;5086888;28;20025;-77
2022/07/09 12:04:06;;;;;;;4.18;3.80;;;24.50;67.30;;;;;;5086591;28;20451;-77
2022/07/09 12:06:32;;;;;;;3.58;3.28;;;24.50;66.70;;;;;;5087761;28;20127;-77
2022/07/09 12:09:04;;;;;;;4.32;3.47;;;24.50;67.00;;;;;;5079081;28;20039;-78
2022/07/09 12:11:38;;;;;;;3.50;3.20;;;24.50;67.00;;;;;;5056642;28;20040;-78
2022/07/09 12:14:03;;;;;;;5.28;3.30;;;24.50;67.70;;;;;;5056151;28;20043;-78
2022/07/09 12:16:29;;;;;;;4.00;3.50;;;24.50;67.90;;;;;;5056641;28;20410;-78
2022/07/09 12:18:56;;;;;;;4.10;3.70;;;24.60;67.70;;;;;;5073962;28;20038;-76
2022/07/09 12:21:25;;;;;;;3.90;3.60;;;24.50;67.80;;;;;;5073298;28;20636;-76
2022/07/09 12:23:51;;;;;;;4.15;3.75;;;24.60;68.20;;;;;;5052372;28;20036;-76
2022/07/09 12:26:17;;;;;;;4.22;3.92;;;24.60;68.40;;;;;;5056065;28;20090;-76
2022/07/09 12:28:42;;;;;;;4.68;4.07;;;24.60;68.50;;;;;;5073476;28;20068;-76
2022/07/09 12:31:08;;;;;;;6.03;4.35;;;24.60;68.90;;;;;;5072858;28;20119;-77
2022/07/09 12:33:34;;;;;;;5.10;4.30;;;24.60;68.60;;;;;;5085046;28;20086;-76
2022/07/09 12:36:02;;;;;;;4.40;3.92;;;24.60;68.60;;;;;;5072478;28;20037;-77
2022/07/09 12:38:28;;;;;;;4.15;3.72;;;24.60;67.40;;;;;;5072043;28;20036;-77
2022/07/09 12:40:56;;;;;;;4.53;4.10;;;24.60;67.00;;;;;;5055965;28;20060;-77
2022/07/09 12:43:27;;;;;;;3.80;3.50;;;24.60;67.00;;;;;;5071465;28;20064;-77
2022/07/09 12:45:53;;;;;;;4.35;3.90;;;24.60;67.10;;;;;;5052499;28;20033;-77
2022/07/09 12:48:22;;;;;;;6.28;3.95;;;24.60;67.10;;;;;;5060438;28;20044;-77